METAR for South-East England East Anglia Midlands and Wales - 19 Feb 2018 - 0153 UTC - RocketRoute WX - rrwx.com
EGKB   EGBB 190120Z 20004KT 5000 -RA OVC003 07/07 Q1017 RERA EGHH   EGVN 190050Z 21002KT 3500 -RADZ BKN004 06/06 Q1018 TEMPO 2000 DZ EGSC   EGFF 190120Z AUTO 25005KT 0200 R30/0500 FG VV/// 07/07 Q1018 EGBE   EGTC   EGYD 190050Z AUTO 20008KT 8000 // FEW020/// BKN050/// BKN090/// 06/05 Q1017 EGNX 190120Z 20009KT 7000 -RA BKN006 BKN017 06/06 Q1017 RERA EGVA 190129Z AUTO 22004KT M -RA OVC004 06/05 A3005 RMK AO2 RAB07E13RAB29 SLP182 RVRNO $ EGLF   EGBJ   EGSD   EGNR   EGNJ   EGGW 190120Z AUTO 21006KT 4100 -DZ OVC003 06/05 Q1018 EGLC 190120Z AUTO VRB02KT 9999 OVC008 08/05 Q1019 EGKK 190120Z 22002KT 2000 BR BKN002 07/07 Q1018 EGLL 190120Z AUTO 22004KT 1100 R27R/P1500 -RADZ BKN002 OVC012 06/06 Q1019 TEMPO 4000 BKN006 EGSS 190120Z AUTO 18004KT 9999 BKN007 OVC010 06/05 Q1018 EGMD 190120Z AUTO 20007KT 9999 FEW003/// BKN006/// OVC010/// 08/07 Q1019 EGMH   EGYM 190050Z 19005KT CAVOK 05/04 Q1018 BLU EGSH 190120Z AUTO 20006KT 9999 NCD 05/04 Q1018 EGOS 190050Z AUTO 20002KT 5000 -RA FEW003/// BKN019/// 07/07 Q1017 EGKA   EGHI   EGMC 190050Z 17003KT 9999 FEW008 BKN011 06/04 Q1019 EGOV 190050Z AUTO 17003KT 4800 BR BKN005/// 08/08 Q1017 REDZ EGXW 190050Z 22010KT 6000 -RA SCT030 OVC045 06/06 Q1017 WHT EGUW 190050Z AUTO 18004KT 9999 BKN015/// BKN021/// BKN025/// 05/03 Q1018 EGXT 190050Z AUTO 19004KT 7000 -RA BKN050/// BKN110/// 05/05 Q1017

RocketRoute WX - rrwx.com weather for pilots